createdAt,value
2023-05-21T00:01:48.678Z,9.88
2023-05-21T00:04:17.876Z,8.82
2023-05-21T00:06:45.769Z,9.45
2023-05-21T00:09:13.992Z,9.02
2023-05-21T00:11:41.936Z,9.55
2023-05-21T00:14:10.170Z,9.57
2023-05-21T00:16:38.876Z,11.20
2023-05-21T00:19:07.203Z,8.63
2023-05-21T00:21:34.999Z,9.07
2023-05-21T00:24:02.997Z,11.30
2023-05-21T00:26:30.919Z,9.10
2023-05-21T00:28:59.121Z,9.25
2023-05-21T00:31:27.221Z,10.15
2023-05-21T00:33:55.338Z,9.68
2023-05-21T00:36:24.283Z,10.60
2023-05-21T00:38:52.582Z,7.57
2023-05-21T00:41:22.903Z,8.18
2023-05-21T00:43:51.085Z,9.50
2023-05-21T00:46:21.359Z,8.40
2023-05-21T00:48:50.992Z,9.75
2023-05-21T00:51:21.983Z,13.95
2023-05-21T00:53:52.819Z,17.67
2023-05-21T00:56:23.205Z,17.15
2023-05-21T00:58:54.867Z,14.38
2023-05-21T01:01:25.988Z,9.02
2023-05-21T01:03:58.065Z,11.10
2023-05-21T01:06:26.270Z,12.13
2023-05-21T01:08:58.067Z,11.63
2023-05-21T01:11:37.719Z,12.48
2023-05-21T01:14:08.720Z,11.55
2023-05-21T01:16:42.568Z,10.32
2023-05-21T01:19:22.388Z,8.77
2023-05-21T01:21:57.884Z,9.02
2023-05-21T01:24:26.016Z,8.40
2023-05-21T01:26:54.048Z,11.07
2023-05-21T01:29:22.124Z,10.60
2023-05-21T01:32:17.613Z,10.93
2023-05-21T01:35:08.458Z,10.63
2023-05-21T01:37:48.219Z,12.80
2023-05-21T01:40:43.489Z,11.43
2023-05-21T01:43:13.051Z,13.20
2023-05-21T01:45:43.127Z,9.93
2023-05-21T01:48:13.292Z,9.70
2023-05-21T01:50:44.232Z,10.55
2023-05-21T01:53:12.380Z,11.15
2023-05-21T01:55:42.258Z,13.93
2023-05-21T01:58:10.378Z,10.02
2023-05-21T02:00:40.199Z,10.25
2023-05-21T02:03:09.097Z,7.88
2023-05-21T02:05:37.357Z,10.85
2023-05-21T02:08:05.727Z,9.20
2023-05-21T02:10:33.763Z,10.38
2023-05-21T02:13:01.741Z,13.00
2023-05-21T02:15:30.613Z,13.23
2023-05-21T02:17:58.919Z,9.65
2023-05-21T02:20:26.945Z,9.75
2023-05-21T02:22:56.017Z,8.88
2023-05-21T02:25:24.089Z,8.88
2023-05-21T02:27:56.936Z,8.63
2023-05-21T02:30:24.994Z,9.20
2023-05-21T02:32:54.067Z,12.52
2023-05-21T02:35:22.098Z,12.05
2023-05-21T02:37:50.254Z,12.70
2023-05-21T02:40:18.666Z,12.02
2023-05-21T02:42:46.607Z,11.18
2023-05-21T02:45:19.436Z,12.13
2023-05-21T02:47:48.114Z,12.10
2023-05-21T02:50:19.385Z,11.82
2023-05-21T02:54:25.388Z,6.82
2023-05-21T02:56:53.532Z,6.10
2023-05-21T02:59:21.499Z,6.50
2023-05-21T03:01:49.618Z,5.68
2023-05-21T03:04:18.629Z,5.53
2023-05-21T03:06:46.747Z,5.60
2023-05-21T03:09:14.701Z,6.07
2023-05-21T03:11:43.330Z,7.13
2023-05-21T03:14:12.401Z,7.85
2023-05-21T03:16:41.991Z,6.60
2023-05-21T03:19:11.689Z,7.70
2023-05-21T03:21:39.992Z,7.72
2023-05-21T03:24:08.061Z,7.97
2023-05-21T03:26:36.339Z,7.70
2023-05-21T03:29:04.548Z,6.88
2023-05-21T03:31:32.904Z,5.95
2023-05-21T03:34:08.893Z,6.03
2023-05-21T03:36:36.880Z,6.35
2023-05-21T03:39:04.900Z,6.10
2023-05-21T03:41:34.872Z,7.53
2023-05-21T03:44:12.251Z,6.60
2023-05-21T03:46:51.055Z,5.97
2023-05-21T03:49:34.174Z,6.32
2023-05-21T03:52:02.144Z,6.68
2023-05-21T03:54:30.176Z,7.90
2023-05-21T03:57:03.105Z,7.50
2023-05-21T03:59:31.087Z,7.10
2023-05-21T04:02:00.269Z,6.88
2023-05-21T04:04:29.831Z,6.88
2023-05-21T04:06:58.015Z,6.70
2023-05-21T04:09:28.035Z,6.55
2023-05-21T04:11:56.320Z,6.93
2023-05-21T04:14:24.284Z,6.03
2023-05-21T04:16:53.761Z,7.15
2023-05-21T04:19:22.758Z,6.60
2023-05-21T04:21:54.475Z,6.43
2023-05-21T04:24:22.796Z,6.72
2023-05-21T04:27:25.489Z,6.85
2023-05-21T04:29:54.979Z,6.15
2023-05-21T04:32:25.330Z,6.25
2023-05-21T04:34:53.489Z,5.95
2023-05-21T04:37:24.865Z,5.90
2023-05-21T04:39:54.081Z,5.68
2023-05-21T04:42:24.923Z,6.43
2023-05-21T04:44:55.798Z,7.25
2023-05-21T04:47:23.952Z,6.90
2023-05-21T04:49:52.058Z,8.07
2023-05-21T04:52:20.135Z,8.32
2023-05-21T04:54:48.106Z,7.20
2023-05-21T04:57:18.593Z,6.57
2023-05-21T04:59:47.471Z,6.95
2023-05-21T05:02:16.197Z,8.18
2023-05-21T05:04:44.616Z,8.98
2023-05-21T05:07:12.962Z,7.90
2023-05-21T05:09:41.119Z,7.63
2023-05-21T05:12:09.436Z,8.40
2023-05-21T05:14:37.496Z,8.15
2023-05-21T05:17:05.911Z,8.75
2023-05-21T05:19:35.339Z,7.53
2023-05-21T05:22:03.836Z,7.78
2023-05-21T05:24:32.353Z,7.45
2023-05-21T05:27:00.383Z,7.32
2023-05-21T05:29:28.572Z,7.00
2023-05-21T05:31:57.034Z,8.05
2023-05-21T05:34:25.079Z,6.00
2023-05-21T05:36:53.580Z,7.63
2023-05-21T05:39:22.424Z,8.93
2023-05-21T05:41:51.362Z,8.25
2023-05-21T05:44:19.797Z,7.25
2023-05-21T05:46:48.137Z,7.28
2023-05-21T05:49:16.189Z,12.32
2023-05-21T05:51:45.260Z,6.63
2023-05-21T05:54:13.901Z,6.97
2023-05-21T05:56:42.256Z,6.43
2023-05-21T05:59:10.330Z,6.13
2023-05-21T06:01:40.397Z,5.32
2023-05-21T06:04:08.454Z,6.88
2023-05-21T06:06:37.254Z,6.53
2023-05-21T06:09:05.658Z,5.93
2023-05-21T06:14:02.458Z,5.80
2023-05-21T06:19:02.844Z,7.70
2023-05-21T06:24:00.440Z,7.35
2023-05-21T06:26:30.403Z,6.40
2023-05-21T06:28:59.424Z,7.40
2023-05-21T06:31:28.371Z,6.13
2023-05-21T06:33:56.617Z,4.88
2023-05-21T06:36:30.151Z,7.68
2023-05-21T06:38:59.632Z,4.72
2023-05-21T06:41:28.598Z,4.68
2023-05-21T06:44:00.193Z,3.80
2023-05-21T06:46:48.962Z,2.97
2023-05-21T06:49:19.216Z,3.88
2023-05-21T06:51:47.636Z,2.95
2023-05-21T06:54:16.088Z,2.38
2023-05-21T06:56:44.521Z,3.05
2023-05-21T06:59:12.922Z,2.58
2023-05-21T07:01:42.840Z,3.35
2023-05-21T07:04:11.368Z,2.67
2023-05-21T07:06:41.352Z,3.17
2023-05-21T07:09:10.750Z,2.78
2023-05-21T07:11:42.131Z,2.60
2023-05-21T07:14:10.962Z,2.67
2023-05-21T07:16:39.695Z,3.00
2023-05-21T07:19:09.293Z,2.63
2023-05-21T07:21:37.411Z,3.00
2023-05-21T07:24:07.512Z,3.50
2023-05-21T07:26:39.413Z,3.53
2023-05-21T07:29:08.024Z,2.90
2023-05-21T07:31:36.656Z,2.85
2023-05-21T07:34:06.071Z,5.75
2023-05-21T07:36:34.683Z,3.38
2023-05-21T07:39:04.479Z,3.67
2023-05-21T07:41:33.215Z,3.60
2023-05-21T07:44:05.051Z,3.38
2023-05-21T07:46:37.261Z,3.30
2023-05-21T07:49:05.717Z,3.78
2023-05-21T07:51:33.973Z,4.03
2023-05-21T07:54:02.479Z,3.97
2023-05-21T07:56:34.970Z,3.95
2023-05-21T07:59:03.736Z,3.47
2023-05-21T08:01:33.566Z,4.70
2023-05-21T08:04:06.236Z,3.17
2023-05-21T08:09:06.956Z,3.80
2023-05-21T08:11:36.461Z,3.40
2023-05-21T08:14:04.767Z,3.95
2023-05-21T08:19:02.070Z,4.50
2023-05-21T08:21:30.445Z,3.88
2023-05-21T08:24:00.864Z,3.97
2023-05-21T08:26:29.289Z,4.70
2023-05-21T08:28:57.858Z,4.45
2023-05-21T08:31:26.719Z,3.50
2023-05-21T08:33:56.813Z,2.97
2023-05-21T08:36:38.703Z,3.78
2023-05-21T08:39:14.999Z,3.78
2023-05-21T08:41:50.058Z,3.33
2023-05-21T08:44:22.646Z,4.78
2023-05-21T08:46:52.269Z,3.83
2023-05-21T08:49:27.644Z,4.32
2023-05-21T08:52:05.776Z,4.03
2023-05-21T08:54:34.932Z,3.58
2023-05-21T08:57:04.701Z,4.65
2023-05-21T08:59:33.456Z,4.88
2023-05-21T09:02:04.106Z,3.35
2023-05-21T09:04:39.128Z,5.35
2023-05-21T09:07:11.301Z,4.78
2023-05-21T09:10:11.054Z,5.05
2023-05-21T09:12:40.435Z,3.47
2023-05-21T09:15:09.050Z,2.80
2023-05-21T09:17:38.922Z,2.70
2023-05-21T09:20:27.073Z,2.70
2023-05-21T09:23:10.653Z,3.97
2023-05-21T09:25:39.781Z,11.05
2023-05-21T09:28:16.262Z,3.90
2023-05-21T09:30:49.455Z,3.70
2023-05-21T09:33:30.012Z,3.50
2023-05-21T09:36:01.453Z,2.80
2023-05-21T09:38:30.781Z,3.80
2023-05-21T09:40:59.519Z,3.20
2023-05-21T09:43:31.553Z,2.90
2023-05-21T09:46:02.393Z,2.67
2023-05-21T09:48:35.047Z,2.95
2023-05-21T09:51:18.159Z,3.75
2023-05-21T09:53:55.753Z,2.58
2023-05-21T09:56:26.510Z,2.50
2023-05-21T09:58:57.373Z,3.00
2023-05-21T10:01:25.992Z,2.72
2023-05-21T10:06:28.730Z,3.88
2023-05-21T10:09:05.765Z,12.18
2023-05-21T10:11:37.226Z,5.00
2023-05-21T10:14:07.773Z,9.02
2023-05-21T10:16:37.689Z,2.70
2023-05-21T10:19:11.247Z,5.10
2023-05-21T10:21:41.530Z,4.60
2023-05-21T10:24:11.377Z,4.75
2023-05-21T10:26:41.847Z,3.08
2023-05-21T10:29:10.970Z,9.52
2023-05-21T10:31:40.720Z,2.50
2023-05-21T10:34:11.180Z,2.70
2023-05-21T10:36:41.701Z,3.55
2023-05-21T10:39:13.400Z,12.18
2023-05-21T10:41:59.293Z,4.20
2023-05-21T10:45:06.313Z,3.60
2023-05-21T10:47:58.414Z,5.25
2023-05-21T10:50:40.174Z,9.65
2023-05-21T10:53:23.255Z,4.10
2023-05-21T10:56:44.183Z,3.92
2023-05-21T10:59:22.521Z,3.35
2023-05-21T11:01:57.559Z,4.10
2023-05-21T11:04:29.080Z,3.40
2023-05-21T11:06:59.576Z,3.80
2023-05-21T11:09:28.271Z,3.35
2023-05-21T11:12:01.465Z,2.80
2023-05-21T11:14:40.985Z,6.10
2023-05-21T11:17:14.426Z,5.40
2023-05-21T11:19:47.801Z,5.47
2023-05-21T11:22:28.804Z,4.80
2023-05-21T11:25:01.510Z,3.28
2023-05-21T11:27:36.284Z,3.50
2023-05-21T11:30:06.300Z,4.50
2023-05-21T11:33:04.475Z,4.07
2023-05-21T11:35:57.239Z,2.88
2023-05-21T11:38:31.449Z,4.47
2023-05-21T11:41:04.478Z,8.07
2023-05-21T11:43:33.056Z,4.28
2023-05-21T11:46:02.700Z,3.63
2023-05-21T11:48:32.853Z,3.22
2023-05-21T11:51:02.758Z,3.28
2023-05-21T11:53:31.370Z,2.88
2023-05-21T11:56:02.711Z,2.90
2023-05-21T11:58:32.358Z,3.13
2023-05-21T12:01:01.156Z,3.72
2023-05-21T12:03:30.882Z,3.05
2023-05-21T12:06:07.059Z,3.00
2023-05-21T12:08:36.256Z,4.47
2023-05-21T12:11:04.977Z,2.72
2023-05-21T12:13:33.590Z,2.80
2023-05-21T12:16:07.020Z,2.78
2023-05-21T12:18:37.626Z,3.42
2023-05-21T12:21:07.289Z,2.97
2023-05-21T12:23:36.961Z,3.13
2023-05-21T12:26:06.144Z,3.15
2023-05-21T12:28:34.556Z,2.90
2023-05-21T12:31:03.023Z,3.28
2023-05-21T12:33:37.906Z,3.60
2023-05-21T12:36:06.860Z,2.88
2023-05-21T12:38:35.347Z,2.60
2023-05-21T12:41:05.355Z,3.75
2023-05-21T12:43:34.141Z,3.35
2023-05-21T12:46:02.676Z,3.33
2023-05-21T12:48:31.375Z,2.50
2023-05-21T12:51:00.515Z,2.53
2023-05-21T12:53:38.452Z,3.75
2023-05-21T12:56:10.804Z,2.83
2023-05-21T12:58:43.394Z,2.72
2023-05-21T13:01:12.738Z,2.88
2023-05-21T13:03:45.599Z,3.72
2023-05-21T13:06:14.292Z,3.42
2023-05-21T13:11:11.032Z,4.20
2023-05-21T13:16:08.738Z,3.10
2023-05-21T13:18:37.255Z,3.17
2023-05-21T13:21:06.297Z,2.20
2023-05-21T13:23:34.500Z,4.90
2023-05-21T13:26:03.918Z,3.08
2023-05-21T13:28:32.534Z,2.67
2023-05-21T13:31:01.264Z,3.08
2023-05-21T13:33:32.184Z,3.63
2023-05-21T13:36:01.217Z,4.35
2023-05-21T13:38:29.883Z,3.20
2023-05-21T13:40:58.393Z,3.10
2023-05-21T13:43:26.952Z,5.13
2023-05-21T13:45:56.345Z,2.75
2023-05-21T13:48:24.932Z,3.63
2023-05-21T13:50:53.609Z,3.08
2023-05-21T13:53:25.174Z,3.30
2023-05-21T13:55:53.402Z,3.17
2023-05-21T13:58:21.811Z,2.58
2023-05-21T14:00:50.220Z,2.30
2023-05-21T14:05:48.865Z,3.03
2023-05-21T14:08:20.464Z,3.08
2023-05-21T14:10:49.165Z,3.45
2023-05-21T14:15:49.014Z,2.63
2023-05-21T14:18:17.490Z,2.25
2023-05-21T14:20:46.070Z,2.88
2023-05-21T14:23:15.123Z,3.03
2023-05-21T14:25:43.691Z,3.40
2023-05-21T14:28:12.185Z,3.72
2023-05-21T14:33:08.585Z,2.50
2023-05-21T14:35:36.834Z,2.65
2023-05-21T14:38:05.114Z,2.75
2023-05-21T14:40:35.364Z,3.60
2023-05-21T14:43:04.395Z,3.58
2023-05-21T14:45:35.664Z,3.67
2023-05-21T14:48:11.276Z,4.90
2023-05-21T14:50:40.005Z,4.03
2023-05-21T14:53:14.016Z,3.97
2023-05-21T14:55:42.699Z,3.05
2023-05-21T14:58:11.453Z,3.33
2023-05-21T15:00:40.453Z,3.75
2023-05-21T15:03:09.161Z,5.38
2023-05-21T15:05:38.085Z,2.95
2023-05-21T15:08:08.492Z,2.65
2023-05-21T15:10:37.076Z,3.10
2023-05-21T15:13:05.714Z,3.83
2023-05-21T15:15:34.381Z,3.83
2023-05-21T15:18:03.088Z,3.58
2023-05-21T15:20:31.245Z,3.28
2023-05-21T15:25:32.473Z,3.65
2023-05-21T15:28:01.344Z,3.03
2023-05-21T15:30:30.061Z,3.80
2023-05-21T15:35:27.194Z,2.90
2023-05-21T15:37:55.673Z,4.30
2023-05-21T15:42:55.518Z,3.25
2023-05-21T15:47:53.651Z,2.92
2023-05-21T15:50:22.243Z,3.55
2023-05-21T15:52:53.185Z,6.30
2023-05-21T15:55:22.497Z,5.95
2023-05-21T15:57:51.209Z,6.38
2023-05-21T16:00:19.869Z,5.53
2023-05-21T16:05:16.826Z,4.28
2023-05-21T16:10:13.762Z,3.17
2023-05-21T16:12:42.209Z,2.97
2023-05-21T16:15:11.318Z,2.72
2023-05-21T16:17:39.830Z,3.03
2023-05-21T16:20:08.318Z,3.47
2023-05-21T16:22:36.894Z,3.03
2023-05-21T16:25:05.912Z,3.60
2023-05-21T16:27:35.673Z,3.38
2023-05-21T16:30:04.668Z,3.90
2023-05-21T16:32:33.586Z,3.92
2023-05-21T16:35:02.120Z,4.35
2023-05-21T16:37:30.842Z,3.55
2023-05-21T16:39:59.434Z,3.97
2023-05-21T16:42:28.122Z,3.85
2023-05-21T16:44:56.904Z,5.40
2023-05-21T16:47:25.372Z,3.80
2023-05-21T16:49:54.814Z,4.25
2023-05-21T16:52:24.480Z,5.18
2023-05-21T16:54:52.901Z,4.47
2023-05-21T16:57:21.653Z,5.13
2023-05-21T16:59:50.239Z,6.00
2023-05-21T17:02:18.981Z,5.03
2023-05-21T17:04:48.349Z,5.78
2023-05-21T17:07:17.001Z,5.70
2023-05-21T17:09:45.583Z,5.63
2023-05-21T17:12:14.161Z,5.50
2023-05-21T17:14:42.578Z,4.53
2023-05-21T17:17:11.048Z,4.35
2023-05-21T17:19:39.832Z,5.07
2023-05-21T17:22:08.504Z,5.60
2023-05-21T17:24:37.131Z,7.47
2023-05-21T17:27:05.880Z,9.60
2023-05-21T17:29:34.666Z,9.30
2023-05-21T17:34:31.731Z,6.85
2023-05-21T17:37:00.516Z,6.75
2023-05-21T17:39:29.079Z,6.82
2023-05-21T17:41:57.910Z,4.65
2023-05-21T17:44:26.676Z,4.40
2023-05-21T17:46:56.964Z,4.15
2023-05-21T17:49:25.751Z,8.02
2023-05-21T17:51:55.357Z,9.25
2023-05-21T17:54:23.624Z,7.20
2023-05-21T17:56:52.113Z,6.45
2023-05-21T17:59:21.828Z,8.48
2023-05-21T18:01:50.472Z,12.82
2023-05-21T18:06:47.418Z,6.50
2023-05-21T18:11:47.598Z,4.72
2023-05-21T18:14:16.467Z,5.43
2023-05-21T18:16:45.147Z,4.55
2023-05-21T18:19:14.087Z,4.22
2023-05-21T18:21:42.693Z,4.78
2023-05-21T18:24:11.425Z,3.03
2023-05-21T18:29:11.276Z,3.97
2023-05-21T18:31:39.961Z,5.47
2023-05-21T18:34:08.620Z,5.55
2023-05-21T18:36:39.373Z,4.70
2023-05-21T18:39:09.929Z,4.40
2023-05-21T18:41:39.871Z,4.18
2023-05-21T18:44:08.529Z,4.38
2023-05-21T18:46:36.962Z,3.78
2023-05-21T18:51:33.829Z,4.22
2023-05-21T18:54:02.682Z,4.32
2023-05-21T18:56:31.524Z,3.67
2023-05-21T18:59:00.146Z,4.20
2023-05-21T19:01:28.668Z,4.07
2023-05-21T19:03:58.041Z,5.68
2023-05-21T19:06:28.173Z,4.47
2023-05-21T19:08:56.740Z,5.35
2023-05-21T19:11:31.268Z,4.72
2023-05-21T19:14:00.314Z,4.28
2023-05-21T19:16:28.944Z,4.40
2023-05-21T19:21:27.447Z,5.05
2023-05-21T19:26:25.029Z,5.20
2023-05-21T19:28:54.825Z,4.75
2023-05-21T19:31:23.823Z,5.18
2023-05-21T19:33:52.414Z,3.58
2023-05-21T19:36:21.592Z,4.80
2023-05-21T19:38:51.083Z,4.75
2023-05-21T19:41:22.023Z,6.00
2023-05-21T19:43:51.410Z,4.47
2023-05-21T19:46:20.573Z,4.93
2023-05-21T19:48:52.695Z,4.55
2023-05-21T19:51:21.484Z,4.97
2023-05-21T19:56:18.161Z,3.25
2023-05-21T20:01:17.304Z,4.57
2023-05-21T20:03:46.622Z,4.97
2023-05-21T20:06:17.343Z,3.50
2023-05-21T20:08:46.175Z,4.13
2023-05-21T20:13:42.764Z,3.90
2023-05-21T20:16:12.968Z,3.15
2023-05-21T20:18:43.165Z,5.93
2023-05-21T20:21:11.928Z,5.00
2023-05-21T20:23:40.713Z,5.13
2023-05-21T20:26:09.346Z,4.07
2023-05-21T20:28:37.772Z,3.17
2023-05-21T20:31:06.485Z,4.07
2023-05-21T20:33:40.016Z,4.95
2023-05-21T20:36:08.683Z,5.07
2023-05-21T20:41:06.648Z,3.38
2023-05-21T20:43:37.615Z,4.18
2023-05-21T20:46:06.009Z,6.03
2023-05-21T20:48:34.620Z,5.32
2023-05-21T20:51:04.754Z,13.15
2023-05-21T20:53:33.991Z,3.83
2023-05-21T20:56:02.271Z,3.38
2023-05-21T20:58:30.343Z,3.60
2023-05-21T21:00:58.415Z,3.08
2023-05-21T21:03:30.015Z,4.05
2023-05-21T21:05:59.712Z,4.43
2023-05-21T21:08:28.369Z,5.13
2023-05-21T21:13:24.542Z,4.07
2023-05-21T21:15:52.699Z,4.53
2023-05-21T21:18:20.596Z,4.10
2023-05-21T21:20:50.025Z,4.18
2023-05-21T21:23:18.409Z,4.18
2023-05-21T21:25:46.681Z,3.72
2023-05-21T21:28:14.864Z,4.68
2023-05-21T21:30:42.842Z,3.47
2023-05-21T21:33:11.960Z,3.33
2023-05-21T21:35:41.448Z,3.35
2023-05-21T21:38:09.464Z,4.00
2023-05-21T21:40:37.727Z,3.75
2023-05-21T21:43:06.156Z,3.85
2023-05-21T21:45:34.223Z,4.10
2023-05-21T21:48:02.267Z,3.75
2023-05-21T21:50:30.171Z,3.75
2023-05-21T21:52:58.175Z,3.58
2023-05-21T21:55:26.250Z,3.42
2023-05-21T21:57:54.329Z,4.47
2023-05-21T22:00:26.845Z,4.50
2023-05-21T22:02:55.064Z,3.25
2023-05-21T22:05:23.026Z,4.18
2023-05-21T22:07:51.518Z,4.18
2023-05-21T22:10:19.692Z,3.90
2023-05-21T22:12:47.615Z,3.40
2023-05-21T22:15:21.174Z,5.28
2023-05-21T22:17:50.420Z,5.20
2023-05-21T22:20:18.863Z,5.32
2023-05-21T22:22:47.315Z,5.20
2023-05-21T22:25:15.277Z,5.63
2023-05-21T22:27:43.863Z,5.13
2023-05-21T22:30:12.194Z,5.40
2023-05-21T22:32:40.371Z,6.75
2023-05-21T22:35:08.896Z,5.63
2023-05-21T22:37:37.670Z,4.13
2023-05-21T22:40:07.134Z,4.50
2023-05-21T22:42:36.607Z,5.85
2023-05-21T22:45:04.897Z,5.00
2023-05-21T22:47:32.901Z,4.25
2023-05-21T22:50:04.482Z,5.60
2023-05-21T22:52:34.391Z,5.05
2023-05-21T22:55:02.680Z,5.75
2023-05-21T22:57:30.573Z,5.93
2023-05-21T22:59:58.607Z,4.35
2023-05-21T23:02:26.649Z,4.45
2023-05-21T23:04:54.636Z,4.60
2023-05-21T23:07:22.497Z,4.85
2023-05-21T23:09:51.941Z,6.68
2023-05-21T23:12:20.135Z,4.57
2023-05-21T23:14:48.105Z,4.53
2023-05-21T23:17:15.941Z,6.10
2023-05-21T23:19:43.960Z,3.70
2023-05-21T23:22:12.154Z,3.70
2023-05-21T23:24:40.382Z,4.32
2023-05-21T23:27:08.284Z,3.95
2023-05-21T23:29:36.278Z,4.10
2023-05-21T23:32:05.373Z,3.42
2023-05-21T23:34:33.434Z,2.92
2023-05-21T23:37:01.449Z,3.72
2023-05-21T23:39:29.324Z,4.07
2023-05-21T23:41:57.357Z,4.03
2023-05-21T23:44:25.284Z,4.18
2023-05-21T23:46:53.183Z,4.05
2023-05-21T23:49:21.078Z,3.90
2023-05-21T23:51:50.953Z,3.80
2023-05-21T23:54:18.980Z,3.63
2023-05-21T23:56:46.900Z,4.80
2023-05-21T23:59:18.515Z,5.05
